createdAt,value
2017-09-12T00:00:06.942Z,21.17
2017-09-12T00:00:47.391Z,21.15
2017-09-12T00:01:27.854Z,21.14
2017-09-12T00:02:08.305Z,21.11
2017-09-12T00:02:48.759Z,21.17
2017-09-12T00:03:29.216Z,21.17
2017-09-12T00:04:09.665Z,21.14
2017-09-12T00:04:50.125Z,21.17
2017-09-12T00:05:30.578Z,21.14
2017-09-12T00:06:11.027Z,21.15
2017-09-12T00:06:51.482Z,21.08
2017-09-12T00:07:31.936Z,21.14
2017-09-12T00:08:12.384Z,21.13
2017-09-12T00:08:52.834Z,21.1
2017-09-12T00:09:33.291Z,21.13
2017-09-12T00:10:13.745Z,21.11
2017-09-12T00:10:54.196Z,21.08
2017-09-12T00:11:34.649Z,21.1
2017-09-12T00:12:15.107Z,21.01
2017-09-12T00:12:55.558Z,21.01
2017-09-12T00:13:36.010Z,21.03
2017-09-12T00:14:16.470Z,21.03
2017-09-12T00:14:56.925Z,21.04
2017-09-12T00:15:37.375Z,21.01
2017-09-12T00:16:17.832Z,21
2017-09-12T00:16:58.282Z,21.01
2017-09-12T00:17:38.749Z,21.03
2017-09-12T00:18:19.200Z,21.01
2017-09-12T00:18:59.658Z,21.07
2017-09-12T00:19:40.099Z,21.04
2017-09-12T00:20:20.559Z,21.05
2017-09-12T00:21:01.008Z,21.08
2017-09-12T00:21:41.454Z,21.07
2017-09-12T00:22:21.901Z,21.04
2017-09-12T00:23:02.466Z,21.13
2017-09-12T00:23:42.865Z,21.01
2017-09-12T00:24:23.321Z,21.1
2017-09-12T00:25:03.788Z,21.07
2017-09-12T00:25:44.241Z,21.03
2017-09-12T00:26:24.691Z,21.08
2017-09-12T00:27:05.147Z,21.04
2017-09-12T00:27:45.588Z,21.17
2017-09-12T00:28:26.034Z,21.15
2017-09-12T00:29:06.488Z,21.14
2017-09-12T00:29:46.924Z,21.15
2017-09-12T00:30:27.437Z,21.11
2017-09-12T00:31:07.899Z,21.19
2017-09-12T00:31:48.358Z,21.13
2017-09-12T00:32:28.918Z,21.13
2017-09-12T00:33:09.367Z,21.17
2017-09-12T00:33:49.823Z,21.14
2017-09-12T00:34:30.281Z,21.05
2017-09-12T00:35:10.742Z,21.14
2017-09-12T00:35:51.192Z,21.14
2017-09-12T00:36:31.644Z,21.1
2017-09-12T00:37:12.101Z,21.07
2017-09-12T00:37:52.561Z,21.05
2017-09-12T00:38:33.012Z,21.01
2017-09-12T00:39:13.468Z,21.08
2017-09-12T00:39:53.921Z,21
2017-09-12T00:40:34.388Z,21.07
2017-09-12T00:41:14.844Z,20.96
2017-09-12T00:41:55.297Z,21.03
2017-09-12T00:42:35.744Z,21.03
2017-09-12T00:43:16.194Z,21.01
2017-09-12T00:43:56.648Z,20.88
2017-09-12T00:44:37.114Z,20.88
2017-09-12T00:45:17.569Z,20.86
2017-09-12T00:45:58.020Z,20.89
2017-09-12T00:46:38.474Z,20.92
2017-09-12T00:47:18.934Z,20.83
2017-09-12T00:47:59.380Z,20.9
2017-09-12T00:48:39.837Z,20.9
2017-09-12T00:49:20.288Z,20.82
2017-09-12T00:50:00.738Z,20.92
2017-09-12T00:50:41.192Z,20.86
2017-09-12T00:51:21.646Z,20.86
2017-09-12T00:52:02.098Z,20.89
2017-09-12T00:52:42.551Z,20.9
2017-09-12T00:53:23.004Z,20.92
2017-09-12T00:54:03.452Z,20.9
2017-09-12T00:54:43.903Z,20.93
2017-09-12T00:55:24.366Z,20.85
2017-09-12T00:56:04.820Z,20.89
2017-09-12T00:56:45.336Z,20.88
2017-09-12T00:57:25.737Z,20.92
2017-09-12T00:58:06.170Z,20.96
2017-09-12T00:58:46.629Z,21
2017-09-12T00:59:27.088Z,20.98
2017-09-12T01:00:07.585Z,21.05
2017-09-12T01:00:48.034Z,21.03
2017-09-12T01:01:28.489Z,21.07
2017-09-12T01:02:08.954Z,21.04
2017-09-12T01:02:49.402Z,21.04
2017-09-12T01:03:29.850Z,21.03
2017-09-12T01:04:10.297Z,21.01
2017-09-12T01:04:50.769Z,21.04
2017-09-12T01:05:31.223Z,21.01
2017-09-12T01:06:11.682Z,21.05
2017-09-12T01:06:52.135Z,21.01
2017-09-12T01:07:32.596Z,21
2017-09-12T01:08:13.044Z,21.05
2017-09-12T01:08:53.502Z,20.95
2017-09-12T01:09:33.954Z,20.9
2017-09-12T01:10:14.399Z,20.89
2017-09-12T01:10:54.868Z,20.9
2017-09-12T01:11:35.332Z,20.82
2017-09-12T01:12:15.779Z,20.88
2017-09-12T01:12:56.234Z,20.8
2017-09-12T01:13:36.685Z,20.86
2017-09-12T01:14:17.147Z,20.92
2017-09-12T01:14:57.582Z,20.86
2017-09-12T01:15:38.039Z,20.82
2017-09-12T01:16:18.477Z,20.83
2017-09-12T01:16:58.927Z,20.82
2017-09-12T01:17:39.467Z,20.86
2017-09-12T01:18:19.924Z,20.89
2017-09-12T01:19:00.494Z,20.9
2017-09-12T01:19:40.929Z,20.92
2017-09-12T01:20:21.382Z,20.89
2017-09-12T01:21:01.834Z,20.92
2017-09-12T01:21:42.291Z,20.88
2017-09-12T01:22:22.747Z,20.86
2017-09-12T01:23:03.249Z,20.98
2017-09-12T01:23:43.711Z,21.01
2017-09-12T01:24:24.170Z,21
2017-09-12T01:25:04.628Z,20.98
2017-09-12T01:25:45.078Z,21.04
2017-09-12T01:26:25.534Z,21.04
2017-09-12T01:27:05.983Z,21.04
2017-09-12T01:27:46.433Z,21.05
2017-09-12T01:28:26.896Z,21.07
2017-09-12T01:29:07.354Z,21.03
2017-09-12T01:29:47.812Z,21.03
2017-09-12T01:30:28.267Z,21.01
2017-09-12T01:31:08.725Z,20.96
2017-09-12T01:31:49.179Z,20.88
2017-09-12T01:32:29.628Z,20.93
2017-09-12T01:33:10.084Z,20.88
2017-09-12T01:33:50.538Z,20.88
2017-09-12T01:34:30.984Z,20.88
2017-09-12T01:35:11.434Z,20.85
2017-09-12T01:35:51.885Z,20.83
2017-09-12T01:36:32.339Z,20.82
2017-09-12T01:37:12.800Z,20.78
2017-09-12T01:37:53.255Z,20.86
2017-09-12T01:38:33.710Z,20.88
2017-09-12T01:39:14.166Z,20.89
2017-09-12T01:39:54.626Z,20.9
2017-09-12T01:40:35.086Z,20.88
2017-09-12T01:41:15.603Z,20.88
2017-09-12T01:41:56.063Z,20.9
2017-09-12T01:42:36.512Z,20.86
2017-09-12T01:43:17.033Z,20.86
2017-09-12T01:43:57.479Z,20.85
2017-09-12T01:44:37.927Z,20.82
2017-09-12T01:45:18.473Z,20.74
2017-09-12T01:45:58.919Z,20.85
2017-09-12T01:46:39.372Z,20.8
2017-09-12T01:47:19.831Z,20.78
2017-09-12T01:48:00.312Z,20.85
2017-09-12T01:48:40.729Z,20.71
2017-09-12T01:49:21.177Z,20.85
2017-09-12T01:50:01.634Z,20.77
2017-09-12T01:50:42.097Z,20.78
2017-09-12T01:51:22.553Z,20.74
2017-09-12T01:52:03.009Z,20.78
2017-09-12T01:52:43.479Z,20.74
2017-09-12T01:53:23.921Z,20.71
2017-09-12T01:54:04.369Z,20.82
2017-09-12T01:54:44.822Z,20.73
2017-09-12T01:55:25.284Z,20.67
2017-09-12T01:56:05.766Z,20.7
2017-09-12T01:56:46.215Z,20.7
2017-09-12T01:57:26.672Z,20.68
2017-09-12T01:58:07.130Z,20.68
2017-09-12T01:58:47.583Z,20.67
2017-09-12T01:59:28.023Z,20.67
2017-09-12T02:00:08.466Z,20.56
2017-09-12T02:00:48.918Z,20.71
2017-09-12T02:01:29.365Z,20.58
2017-09-12T02:02:09.821Z,20.7
2017-09-12T02:02:50.278Z,20.66
2017-09-12T02:03:30.735Z,20.66
2017-09-12T02:04:11.191Z,20.64
2017-09-12T02:04:51.646Z,20.59
2017-09-12T02:05:32.102Z,20.64
2017-09-12T02:06:12.543Z,20.63
2017-09-12T02:06:53.009Z,20.63
2017-09-12T02:07:33.454Z,20.63
2017-09-12T02:08:13.915Z,20.67
2017-09-12T02:08:54.369Z,20.6
2017-09-12T02:09:34.822Z,20.63
2017-09-12T02:10:15.279Z,20.63
2017-09-12T02:10:55.742Z,20.53
2017-09-12T02:11:36.189Z,20.67
2017-09-12T02:12:16.683Z,20.6
2017-09-12T02:12:57.135Z,20.68
2017-09-12T02:13:37.597Z,20.59
2017-09-12T02:14:18.049Z,20.67
2017-09-12T02:14:58.508Z,20.58
2017-09-12T02:15:38.962Z,20.58
2017-09-12T02:16:19.417Z,20.63
2017-09-12T02:16:59.860Z,20.64
2017-09-12T02:17:40.318Z,20.66
2017-09-12T02:18:20.855Z,20.59
2017-09-12T02:19:01.364Z,20.55
2017-09-12T02:19:41.835Z,20.63
2017-09-12T02:20:22.288Z,20.64
2017-09-12T02:21:02.731Z,20.67
2017-09-12T02:21:43.186Z,20.75
2017-09-12T02:22:23.646Z,20.6
2017-09-12T02:23:04.089Z,20.7
2017-09-12T02:23:44.536Z,20.68
2017-09-12T02:24:25.019Z,20.5
2017-09-12T02:26:02.445Z,20.63
2017-09-12T02:26:42.886Z,20.53
2017-09-12T02:27:23.338Z,20.55
2017-09-12T02:28:03.828Z,20.46
2017-09-12T02:28:44.267Z,20.48
2017-09-12T02:29:24.735Z,20.46
2017-09-12T02:30:05.184Z,20.44
2017-09-12T02:30:45.638Z,20.39
2017-09-12T02:31:26.086Z,20.5
2017-09-12T02:32:06.544Z,20.53
2017-09-12T02:32:46.994Z,20.4
2017-09-12T02:33:27.446Z,20.48
2017-09-12T02:34:07.899Z,20.5
2017-09-12T02:34:48.374Z,20.53
2017-09-12T02:35:28.839Z,20.55
2017-09-12T02:36:09.272Z,20.59
2017-09-12T02:36:49.733Z,20.59
2017-09-12T02:37:30.186Z,20.67
2017-09-12T02:38:10.645Z,20.7
2017-09-12T02:38:51.093Z,20.68
2017-09-12T02:39:31.549Z,20.68
2017-09-12T02:40:11.999Z,20.66
2017-09-12T02:40:52.447Z,20.67
2017-09-12T02:41:32.909Z,20.63
2017-09-12T02:42:13.365Z,20.7
2017-09-12T02:42:53.815Z,20.71
2017-09-12T02:43:34.262Z,20.75
2017-09-12T02:44:14.715Z,20.67
2017-09-12T02:44:55.168Z,20.63
2017-09-12T02:45:35.617Z,20.68
2017-09-12T02:46:16.127Z,20.63
2017-09-12T02:46:56.573Z,20.66
2017-09-12T02:47:37.055Z,20.73
2017-09-12T02:48:17.501Z,20.68
2017-09-12T02:48:57.919Z,20.7
2017-09-12T02:49:38.374Z,20.73
2017-09-12T02:50:18.850Z,20.78
2017-09-12T02:50:59.297Z,20.74
2017-09-12T02:51:39.744Z,20.83
2017-09-12T02:52:20.193Z,20.77
2017-09-12T02:53:00.642Z,20.71
2017-09-12T02:53:41.092Z,20.8
2017-09-12T02:54:21.543Z,20.75
2017-09-12T02:55:02.001Z,20.73
2017-09-12T02:55:42.460Z,20.7
2017-09-12T02:56:22.906Z,20.73
2017-09-12T02:57:03.359Z,20.75
2017-09-12T02:57:43.811Z,20.78
2017-09-12T02:58:24.267Z,20.83
2017-09-12T02:59:04.722Z,20.88
2017-09-12T02:59:45.170Z,20.85
2017-09-12T03:00:25.627Z,20.78
2017-09-12T03:01:06.088Z,20.86
2017-09-12T03:01:46.539Z,20.86
2017-09-12T03:02:26.997Z,20.88
2017-09-12T03:03:07.447Z,20.83
2017-09-12T03:03:47.896Z,20.86
2017-09-12T03:04:28.354Z,20.88
2017-09-12T03:05:08.810Z,20.83
2017-09-12T03:05:49.264Z,20.8
2017-09-12T03:06:29.716Z,20.83
2017-09-12T03:07:10.167Z,20.86
2017-09-12T03:07:50.618Z,20.85
2017-09-12T03:08:31.068Z,20.86
2017-09-12T03:09:11.531Z,21
2017-09-12T03:09:51.988Z,20.98
2017-09-12T03:10:32.438Z,21.04
2017-09-12T03:11:12.894Z,21.03
2017-09-12T03:11:53.341Z,20.98
2017-09-12T03:12:33.800Z,21.04
2017-09-12T03:13:14.252Z,21.07
2017-09-12T03:13:54.708Z,21.11
2017-09-12T03:14:35.164Z,21.11
2017-09-12T03:15:15.627Z,21.1
2017-09-12T03:15:56.087Z,21.05
2017-09-12T03:16:36.537Z,21.03
2017-09-12T03:17:17.103Z,21.1
2017-09-12T03:17:57.558Z,21.14
2017-09-12T03:18:38.012Z,21.17
2017-09-12T03:19:18.470Z,21.17
2017-09-12T03:19:58.914Z,21.2
2017-09-12T03:20:39.372Z,21.15
2017-09-12T03:21:19.835Z,21.17
2017-09-12T03:22:00.290Z,21.14
2017-09-12T03:22:40.745Z,21.14
2017-09-12T03:23:21.303Z,21.08
2017-09-12T03:24:01.757Z,21.04
2017-09-12T03:24:42.213Z,21.07
2017-09-12T03:25:22.664Z,20.96
2017-09-12T03:26:03.121Z,20.86
2017-09-12T03:26:43.582Z,20.92
2017-09-12T03:27:24.033Z,20.89
2017-09-12T03:28:04.484Z,20.89
2017-09-12T03:28:44.925Z,20.89
2017-09-12T03:29:25.383Z,20.96
2017-09-12T03:30:05.866Z,20.96
2017-09-12T03:30:46.322Z,20.98
2017-09-12T03:31:26.771Z,20.95
2017-09-12T03:32:07.224Z,21.07
2017-09-12T03:32:47.681Z,21.03
2017-09-12T03:33:28.132Z,20.95
2017-09-12T03:34:08.584Z,20.9
2017-09-12T03:34:49.035Z,20.82
2017-09-12T03:35:29.500Z,20.82
2017-09-12T03:36:09.949Z,20.88
2017-09-12T03:36:50.403Z,20.78
2017-09-12T03:37:30.857Z,20.86
2017-09-12T03:38:11.305Z,20.88
2017-09-12T03:38:51.747Z,20.88
2017-09-12T03:39:32.198Z,20.85
2017-09-12T03:40:12.661Z,20.88
2017-09-12T03:40:53.103Z,20.92
2017-09-12T03:41:33.559Z,20.88
2017-09-12T03:42:14.015Z,20.83
2017-09-12T03:42:54.464Z,20.83
2017-09-12T03:43:34.922Z,20.78
2017-09-12T03:44:15.380Z,20.82
2017-09-12T03:44:55.828Z,20.85
2017-09-12T03:45:36.273Z,20.8
2017-09-12T03:46:16.722Z,20.78
2017-09-12T03:46:57.175Z,20.75
2017-09-12T03:47:37.634Z,20.78
2017-09-12T03:48:18.084Z,20.8
2017-09-12T03:48:58.540Z,20.73
2017-09-12T03:49:38.989Z,20.75
2017-09-12T03:50:19.438Z,20.73
2017-09-12T03:50:59.896Z,20.75
2017-09-12T03:51:40.354Z,20.71
2017-09-12T03:52:20.816Z,20.7
2017-09-12T03:53:01.271Z,20.82
2017-09-12T03:53:41.720Z,20.68
2017-09-12T03:54:22.184Z,20.68
2017-09-12T03:55:02.641Z,20.7
2017-09-12T03:55:43.093Z,20.74
2017-09-12T03:56:23.564Z,20.73
2017-09-12T03:57:04.020Z,20.71
2017-09-12T03:57:44.468Z,20.85
2017-09-12T03:58:24.922Z,20.85
2017-09-12T03:59:05.377Z,20.92
2017-09-12T03:59:45.833Z,20.88
2017-09-12T04:00:26.281Z,20.88
2017-09-12T04:01:06.746Z,20.86
2017-09-12T04:01:47.192Z,21
2017-09-12T04:02:27.643Z,21.03
2017-09-12T04:03:08.091Z,21.07
2017-09-12T04:03:48.541Z,21.03
2017-09-12T04:04:28.998Z,21.11
2017-09-12T04:05:09.447Z,21.14
2017-09-12T04:05:49.902Z,21.2
2017-09-12T04:06:30.366Z,21.25
2017-09-12T04:07:10.881Z,21.2
2017-09-12T04:07:51.328Z,21.19
2017-09-12T04:08:31.780Z,21.22
2017-09-12T04:09:12.233Z,21.33
2017-09-12T04:09:52.678Z,21.35
2017-09-12T04:10:33.127Z,21.35
2017-09-12T04:11:13.575Z,21.33
2017-09-12T04:11:54.032Z,21.35
2017-09-12T04:12:34.494Z,21.4
2017-09-12T04:13:14.946Z,21.4
2017-09-12T04:13:55.404Z,21.48
2017-09-12T04:14:35.862Z,21.54
2017-09-12T04:15:16.398Z,21.59
2017-09-12T04:15:56.848Z,21.56
2017-09-12T04:16:37.299Z,21.51
2017-09-12T04:17:17.769Z,21.51
2017-09-12T04:17:58.221Z,21.51
2017-09-12T04:18:38.677Z,21.66
2017-09-12T04:19:19.123Z,21.66
2017-09-12T04:19:59.580Z,21.66
2017-09-12T04:20:40.041Z,21.68
2017-09-12T04:21:20.489Z,21.66
2017-09-12T04:22:00.946Z,21.66
2017-09-12T04:22:41.411Z,21.68
2017-09-12T04:23:21.888Z,21.7
2017-09-12T04:24:02.350Z,21.68
2017-09-12T04:24:42.802Z,21.7
2017-09-12T04:25:23.290Z,21.69
2017-09-12T04:26:03.739Z,21.74
2017-09-12T04:26:44.188Z,21.63
2017-09-12T04:27:24.642Z,21.62
2017-09-12T04:28:05.103Z,21.53
2017-09-12T04:28:45.559Z,21.5
2017-09-12T04:29:25.994Z,21.6
2017-09-12T04:30:06.443Z,21.66
2017-09-12T04:30:46.896Z,21.54
2017-09-12T04:31:27.357Z,21.51
2017-09-12T04:32:07.833Z,21.66
2017-09-12T04:32:48.274Z,21.62
2017-09-12T04:33:28.725Z,21.63
2017-09-12T04:34:09.177Z,21.6
2017-09-12T04:34:49.638Z,21.62
2017-09-12T04:35:30.088Z,21.59
2017-09-12T04:36:10.544Z,21.65
2017-09-12T04:36:51.002Z,21.68
2017-09-12T04:37:31.450Z,21.62
2017-09-12T04:38:11.909Z,21.66
2017-09-12T04:38:52.355Z,21.62
2017-09-12T04:39:32.817Z,21.62
2017-09-12T04:40:13.271Z,21.6
2017-09-12T04:40:53.736Z,21.66
2017-09-12T04:41:34.208Z,21.69
2017-09-12T04:42:14.648Z,21.66
2017-09-12T04:42:55.099Z,21.66
2017-09-12T04:43:35.554Z,21.7
2017-09-12T04:44:16.073Z,21.72
2017-09-12T04:44:56.537Z,21.74
2017-09-12T04:45:36.996Z,21.75
2017-09-12T04:46:17.462Z,21.69
2017-09-12T04:46:57.911Z,21.69
2017-09-12T04:47:38.364Z,21.72
2017-09-12T04:48:18.819Z,21.75
2017-09-12T04:48:59.271Z,21.74
2017-09-12T04:49:39.740Z,21.77
2017-09-12T04:50:20.195Z,21.78
2017-09-12T04:51:00.643Z,21.72
2017-09-12T04:51:41.100Z,21.75
2017-09-12T04:52:21.630Z,21.77
2017-09-12T04:53:02.075Z,21.75
2017-09-12T04:53:42.529Z,21.78
2017-09-12T04:54:22.988Z,21.83
2017-09-12T04:55:03.438Z,21.8
2017-09-12T04:55:43.893Z,21.77
2017-09-12T04:56:24.344Z,21.8
2017-09-12T04:57:04.802Z,21.85
2017-09-12T04:57:45.254Z,21.8
2017-09-12T04:58:25.709Z,21.88
2017-09-12T04:59:06.200Z,21.8
2017-09-12T04:59:46.647Z,21.85
2017-09-12T05:00:27.100Z,21.81
2017-09-12T05:01:07.555Z,21.81
2017-09-12T05:01:48.002Z,21.77
2017-09-12T05:02:28.450Z,21.8
2017-09-12T05:03:08.906Z,21.77
2017-09-12T05:03:49.355Z,21.65
2017-09-12T05:04:29.886Z,21.63
2017-09-12T05:05:10.342Z,21.69
2017-09-12T05:05:50.804Z,21.63
2017-09-12T05:06:31.254Z,21.63
2017-09-12T05:07:11.709Z,21.6
2017-09-12T05:07:52.161Z,21.65
2017-09-12T05:08:32.616Z,21.66
2017-09-12T05:09:13.073Z,21.68
2017-09-12T05:09:53.527Z,21.7
2017-09-12T05:10:33.991Z,21.69
2017-09-12T05:11:14.434Z,21.69
2017-09-12T05:11:54.874Z,21.72
2017-09-12T05:12:35.327Z,21.74
2017-09-12T05:13:15.786Z,21.75
2017-09-12T05:13:56.243Z,21.7
2017-09-12T05:14:36.702Z,21.75
2017-09-12T05:15:17.161Z,21.74
2017-09-12T05:15:57.610Z,21.77
2017-09-12T05:16:38.058Z,21.8
2017-09-12T05:17:18.494Z,21.8
2017-09-12T05:17:58.952Z,21.75
2017-09-12T05:18:39.665Z,21.85
2017-09-12T05:19:20.121Z,21.77
2017-09-12T05:20:00.576Z,21.81
2017-09-12T05:20:41.037Z,21.83
2017-09-12T05:21:21.492Z,21.88
2017-09-12T05:22:01.945Z,21.84
2017-09-12T05:22:42.406Z,21.97
2017-09-12T05:23:22.869Z,21.83
2017-09-12T05:24:03.324Z,21.85
2017-09-12T05:24:43.778Z,21.85
2017-09-12T05:25:24.208Z,21.85
2017-09-12T05:26:04.740Z,21.96
2017-09-12T05:26:45.152Z,21.91
2017-09-12T05:27:25.610Z,21.91
2017-09-12T05:28:06.074Z,21.88
2017-09-12T05:28:46.539Z,21.91
2017-09-12T05:29:26.990Z,21.75
2017-09-12T05:30:07.444Z,21.74
2017-09-12T05:30:47.903Z,21.72
2017-09-12T05:31:28.358Z,21.66
2017-09-12T05:32:08.820Z,21.63
2017-09-12T05:32:49.275Z,21.6
2017-09-12T05:33:29.733Z,21.62
2017-09-12T05:34:10.188Z,21.63
2017-09-12T05:34:50.639Z,21.63
2017-09-12T05:35:31.157Z,21.7
2017-09-12T05:36:11.616Z,21.66
2017-09-12T05:36:52.067Z,21.7
2017-09-12T05:37:32.524Z,21.6
2017-09-12T05:38:12.982Z,21.59
2017-09-12T05:38:53.435Z,21.51
2017-09-12T05:39:33.893Z,21.65
2017-09-12T05:40:14.361Z,21.58
2017-09-12T05:40:54.815Z,21.48
2017-09-12T05:41:35.282Z,21.54
2017-09-12T05:42:15.736Z,21.58
2017-09-12T05:42:56.192Z,21.59
2017-09-12T05:43:36.645Z,21.53
2017-09-12T05:44:17.180Z,21.59
2017-09-12T05:44:57.654Z,21.51
2017-09-12T05:45:38.097Z,21.54
2017-09-12T05:46:18.574Z,21.54
2017-09-12T05:46:59.030Z,21.56
2017-09-12T05:47:39.554Z,21.53
2017-09-12T05:48:20.021Z,21.58
2017-09-12T05:49:00.481Z,21.51
2017-09-12T05:49:40.917Z,21.53
2017-09-12T05:50:21.377Z,21.47
2017-09-12T05:51:01.837Z,21.5
2017-09-12T05:51:42.292Z,21.54
2017-09-12T05:52:22.749Z,21.47
2017-09-12T05:53:03.201Z,21.56
2017-09-12T05:53:43.657Z,21.56
2017-09-12T05:54:24.179Z,21.51
2017-09-12T05:55:04.639Z,21.5
2017-09-12T05:55:45.095Z,21.5
2017-09-12T05:56:25.565Z,21.5
2017-09-12T05:57:06.032Z,21.56
2017-09-12T05:57:46.487Z,21.56
2017-09-12T05:58:26.933Z,21.51
2017-09-12T05:59:07.389Z,21.66
2017-09-12T05:59:47.849Z,21.59
2017-09-12T06:00:28.385Z,21.75
2017-09-12T06:01:08.835Z,21.66
2017-09-12T06:01:49.292Z,21.66
2017-09-12T06:02:29.757Z,21.66
2017-09-12T06:03:10.217Z,21.7
2017-09-12T06:03:50.659Z,21.72
2017-09-12T06:04:31.113Z,21.75
2017-09-12T06:05:11.571Z,21.77
2017-09-12T06:05:52.027Z,21.83
2017-09-12T06:06:32.488Z,21.77
2017-09-12T06:07:12.945Z,21.74
2017-09-12T06:07:53.396Z,21.72
2017-09-12T06:08:33.856Z,21.77
2017-09-12T06:09:14.312Z,21.81
2017-09-12T06:09:54.773Z,21.8
2017-09-12T06:10:35.224Z,21.83
2017-09-12T06:11:15.679Z,21.75
2017-09-12T06:11:56.134Z,21.81
2017-09-12T06:12:36.595Z,21.84
2017-09-12T06:13:17.044Z,21.89
2017-09-12T06:13:57.503Z,21.8
2017-09-12T06:14:37.949Z,21.85
2017-09-12T06:15:18.398Z,21.91
2017-09-12T06:15:58.856Z,21.84
2017-09-12T06:16:39.304Z,21.88
2017-09-12T06:17:19.769Z,21.89
2017-09-12T06:18:00.212Z,21.94
2017-09-12T06:18:40.669Z,21.99
2017-09-12T06:19:23.957Z,22
2017-09-12T06:20:04.413Z,21.91
2017-09-12T06:20:44.871Z,22.01
2017-09-12T06:21:25.325Z,21.94
2017-09-12T06:22:05.776Z,22.04
2017-09-12T06:22:46.232Z,21.94
2017-09-12T06:23:26.732Z,21.92
2017-09-12T06:24:07.239Z,22.03
2017-09-12T06:24:47.637Z,21.94
2017-09-12T06:25:28.099Z,21.94
2017-09-12T06:26:08.563Z,21.97
2017-09-12T06:26:49.018Z,21.92
2017-09-12T06:27:29.510Z,21.88
2017-09-12T06:28:09.976Z,21.88
2017-09-12T06:28:50.429Z,21.88
2017-09-12T06:29:30.886Z,21.88
2017-09-12T06:30:11.341Z,21.88
2017-09-12T06:30:51.805Z,21.85
2017-09-12T06:31:32.257Z,21.78
2017-09-12T06:32:12.726Z,21.83
2017-09-12T06:32:53.183Z,21.8
2017-09-12T06:33:33.630Z,21.81
2017-09-12T06:34:14.090Z,21.81
2017-09-12T06:34:54.549Z,21.84
2017-09-12T06:35:35.011Z,21.75
2017-09-12T06:36:15.471Z,21.84
2017-09-12T06:36:55.932Z,21.8
2017-09-12T06:37:36.457Z,21.78
2017-09-12T06:38:16.925Z,21.77
2017-09-12T06:38:57.388Z,21.8
2017-09-12T06:39:37.831Z,21.78
2017-09-12T06:40:18.288Z,21.8
2017-09-12T06:40:58.744Z,21.8
2017-09-12T06:41:39.201Z,21.8
2017-09-12T06:42:19.654Z,21.7
2017-09-12T06:43:00.105Z,21.8
2017-09-12T06:43:40.541Z,21.83
2017-09-12T06:44:20.988Z,21.81
2017-09-12T06:45:01.444Z,21.77
2017-09-12T06:45:41.915Z,21.8
2017-09-12T06:46:22.385Z,21.72
2017-09-12T06:47:02.819Z,21.68
2017-09-12T06:47:43.275Z,21.59
2017-09-12T06:48:23.730Z,21.51
2017-09-12T06:49:04.186Z,21.5
2017-09-12T06:49:44.645Z,21.53
2017-09-12T06:50:25.103Z,21.58
2017-09-12T06:51:05.548Z,21.51
2017-09-12T06:51:46.007Z,21.44
2017-09-12T06:52:26.436Z,21.41
2017-09-12T06:53:06.893Z,21.43
2017-09-12T06:53:47.352Z,21.43
2017-09-12T06:54:27.906Z,21.43
2017-09-12T06:55:08.352Z,21.4
2017-09-12T06:55:48.807Z,21.41
2017-09-12T06:56:29.268Z,21.37
2017-09-12T06:57:09.705Z,21.47
2017-09-12T06:57:50.158Z,21.38
2017-09-12T06:58:30.603Z,21.38
2017-09-12T06:59:11.138Z,21.5
2017-09-12T06:59:51.595Z,21.41
2017-09-12T07:00:32.047Z,21.35
2017-09-12T07:01:12.494Z,21.44
2017-09-12T07:01:52.942Z,21.28
2017-09-12T07:02:33.400Z,21.38
2017-09-12T07:03:13.859Z,21.4
2017-09-12T07:03:54.316Z,21.37
2017-09-12T07:04:34.766Z,21.29
2017-09-12T07:05:15.225Z,21.33
2017-09-12T07:05:55.684Z,21.33
2017-09-12T07:06:36.132Z,21.37
2017-09-12T07:07:16.589Z,21.33
2017-09-12T07:07:57.043Z,21.43
2017-09-12T07:08:37.493Z,21.33
2017-09-12T07:09:17.939Z,21.26
2017-09-12T07:09:58.395Z,21.43
2017-09-12T07:10:38.857Z,21.47
2017-09-12T07:11:19.305Z,21.44
2017-09-12T07:11:59.756Z,21.41
2017-09-12T07:12:40.210Z,21.47
2017-09-12T07:13:20.735Z,21.54
2017-09-12T07:14:01.203Z,21.48
2017-09-12T07:14:41.658Z,21.53
2017-09-12T07:15:22.165Z,21.54
2017-09-12T07:16:02.624Z,21.63
2017-09-12T07:16:43.094Z,21.68
2017-09-12T07:17:23.564Z,21.66
2017-09-12T07:18:04.027Z,21.63
2017-09-12T07:18:44.489Z,21.7
2017-09-12T07:19:24.942Z,21.62
2017-09-12T07:20:05.400Z,21.68
2017-09-12T07:20:45.916Z,21.72
2017-09-12T07:21:26.352Z,21.65
2017-09-12T07:22:06.802Z,21.69
2017-09-12T07:22:47.264Z,21.77
2017-09-12T07:23:27.722Z,21.75
2017-09-12T07:24:08.190Z,21.78
2017-09-12T07:24:48.653Z,21.84
2017-09-12T07:25:29.153Z,21.96
2017-09-12T07:26:09.610Z,21.99
2017-09-12T07:26:50.064Z,22.07
2017-09-12T07:27:30.525Z,22.1
2017-09-12T07:28:11.012Z,22.15
2017-09-12T07:28:51.472Z,22.18
2017-09-12T07:29:31.927Z,22.18
2017-09-12T07:30:12.381Z,22.26
2017-09-12T07:30:52.846Z,22.18
2017-09-12T07:31:33.303Z,22.28
2017-09-12T07:32:13.765Z,22.26
2017-09-12T07:32:54.214Z,22.25
2017-09-12T07:33:34.669Z,22.36
2017-09-12T07:34:15.120Z,22.23
2017-09-12T07:34:55.587Z,22.33
2017-09-12T07:35:36.043Z,22.38
2017-09-12T07:36:16.499Z,22.4
2017-09-12T07:36:56.960Z,22.38
2017-09-12T07:37:37.414Z,22.51
2017-09-12T07:38:17.864Z,22.53
2017-09-12T07:38:58.321Z,22.56
2017-09-12T07:39:38.770Z,22.55
2017-09-12T07:40:19.233Z,22.55
2017-09-12T07:40:59.684Z,22.55
2017-09-12T07:42:52.222Z,22.61
2017-09-12T07:43:32.677Z,22.59
2017-09-12T07:44:13.134Z,22.47
2017-09-12T07:44:53.589Z,22.47
2017-09-12T07:45:34.049Z,22.62
2017-09-12T07:46:14.520Z,22.58
2017-09-12T07:46:54.978Z,22.61
2017-09-12T07:47:35.430Z,22.55
2017-09-12T07:48:15.888Z,22.51
2017-09-12T07:48:56.334Z,22.7
2017-09-12T07:49:36.797Z,22.56
2017-09-12T07:50:17.248Z,22.56
2017-09-12T07:50:57.701Z,22.7
2017-09-12T07:51:38.153Z,22.74
2017-09-12T07:52:18.608Z,22.7
2017-09-12T07:52:59.058Z,22.73
2017-09-12T07:53:39.508Z,22.77
2017-09-12T07:54:19.964Z,22.68
2017-09-12T07:55:00.416Z,22.74
2017-09-12T07:55:40.868Z,22.76
2017-09-12T07:56:21.314Z,22.7
2017-09-12T07:57:01.758Z,22.74
2017-09-12T07:57:42.223Z,22.71
2017-09-12T07:58:22.677Z,22.7
2017-09-12T07:59:03.138Z,22.78
2017-09-12T07:59:43.597Z,22.74
2017-09-12T08:00:24.048Z,22.81
2017-09-12T08:01:04.607Z,22.78
2017-09-12T08:01:45.100Z,22.83
2017-09-12T08:02:25.551Z,22.8
2017-09-12T08:03:06.001Z,22.81
2017-09-12T08:03:46.452Z,22.89
2017-09-12T08:04:26.910Z,22.91
2017-09-12T08:05:07.365Z,22.98
2017-09-12T08:05:47.820Z,22.93
2017-09-12T08:06:28.268Z,23.01
2017-09-12T08:07:08.715Z,22.99
2017-09-12T08:07:49.168Z,22.99
2017-09-12T08:08:29.622Z,23.02
2017-09-12T08:09:10.084Z,23.02
2017-09-12T08:09:50.545Z,22.98
2017-09-12T08:10:31.000Z,23.01
2017-09-12T08:11:11.452Z,23.17
2017-09-12T08:11:51.906Z,22.98
2017-09-12T08:12:32.356Z,23.01
2017-09-12T08:13:12.806Z,23.02
2017-09-12T08:13:53.252Z,23.07
2017-09-12T08:14:33.698Z,23.14
2017-09-12T08:15:14.145Z,23.16
2017-09-12T08:15:54.603Z,23.14
2017-09-12T08:16:35.057Z,23.1
2017-09-12T08:17:15.505Z,23.1
2017-09-12T08:17:55.955Z,23.08
2017-09-12T08:18:36.404Z,23.07
2017-09-12T08:19:16.860Z,22.99
2017-09-12T08:19:57.315Z,22.96
2017-09-12T08:20:37.766Z,22.98
2017-09-12T08:21:18.299Z,22.93
2017-09-12T08:21:58.748Z,22.93
2017-09-12T08:22:39.205Z,22.86
2017-09-12T08:23:19.704Z,22.84
2017-09-12T08:24:00.170Z,22.81
2017-09-12T08:24:40.626Z,22.83
2017-09-12T08:25:21.211Z,22.76
2017-09-12T08:26:01.662Z,22.73
2017-09-12T08:26:42.123Z,22.68
2017-09-12T08:27:22.775Z,22.74
2017-09-12T08:28:03.232Z,22.7
2017-09-12T08:28:43.688Z,22.73
2017-09-12T08:29:24.140Z,22.71
2017-09-12T08:30:04.595Z,22.65
2017-09-12T08:30:45.050Z,22.7
2017-09-12T08:31:25.514Z,22.59
2017-09-12T08:32:05.963Z,22.63
2017-09-12T08:32:46.412Z,22.52
2017-09-12T08:33:26.861Z,22.47
2017-09-12T08:34:07.307Z,22.58
2017-09-12T08:34:47.767Z,22.53
2017-09-12T08:35:28.302Z,22.46
2017-09-12T08:36:08.754Z,22.47
2017-09-12T08:36:49.202Z,22.51
2017-09-12T08:37:29.654Z,22.41
2017-09-12T08:38:10.099Z,22.41
2017-09-12T08:38:50.550Z,22.36
2017-09-12T08:39:31.003Z,22.38
2017-09-12T08:40:11.450Z,22.31
2017-09-12T08:40:51.896Z,22.34
2017-09-12T08:41:32.346Z,22.3
2017-09-12T08:42:12.794Z,22.26
2017-09-12T08:42:53.255Z,22.3
2017-09-12T08:43:33.716Z,22.3
2017-09-12T08:44:14.163Z,22.26
2017-09-12T08:44:54.617Z,22.25
2017-09-12T08:45:35.074Z,22.26